Time;durP1;ratioP1;P1;durP2;ratioP2;P2;SDS_P1;SDS_P2;PMS_P1;PMS_P2;Temp;Humidity;BMP_temperature;BMP_pressure;BME280_temperature;BME280_humidity;BME280_pressure;Samples;Min_cycle;Max_cycle;Signal;HPM_P1;HPM_P2
2021/12/04 00:00:07;;;;;;;17.67;8.68;;;;;;;0.03;68.87;99554.14;1713630;83;21017;-69
2021/12/04 00:02:35;;;;;;;15.65;7.37;;;;;;;0.06;68.89;99553.88;1722953;80;21566;-70
2021/12/04 00:05:03;;;;;;;22.45;8.93;;;;;;;0.09;68.87;99550.17;1743023;81;21030;-69
2021/12/04 00:07:32;;;;;;;20.45;8.65;;;;;;;0.11;68.89;99545.15;1713027;83;21008;-69
2021/12/04 00:10:01;;;;;;;19.40;8.45;;;;;;;0.13;68.87;99548.50;1703201;82;21501;-70
2021/12/04 00:12:25;;;;;;;17.98;7.92;;;;;;;0.16;68.89;99544.31;1676987;84;21036;-69
2021/12/04 00:14:51;;;;;;;18.62;8.80;;;;;;;0.18;68.88;99545.00;1672187;85;21083;-69
2021/12/04 00:17:17;;;;;;;19.27;9.58;;;;;;;0.20;68.88;99536.55;1656277;86;22041;-69
2021/12/04 00:19:43;;;;;;;20.82;8.28;;;;;;;0.21;68.89;99529.02;1685129;85;20993;-69
2021/12/04 00:22:09;;;;;;;17.80;8.23;;;;;;;0.21;68.88;99522.47;1685341;85;21635;-69
2021/12/04 00:24:35;;;;;;;16.25;7.78;;;;;;;0.20;68.89;99520.83;1684732;84;21040;-69
2021/12/04 00:27:01;;;;;;;19.23;9.45;;;;;;;0.20;68.88;99511.65;1685060;84;21093;-69
2021/12/04 00:29:27;;;;;;;21.17;8.60;;;;;;;0.19;68.89;99505.20;1685048;85;21009;-69
2021/12/04 00:32:00;;;;;;;18.32;8.08;;;;;;;0.17;68.87;99500.59;1685160;85;21009;-69
2021/12/04 00:34:23;;;;;;;22.35;9.60;;;;;;;0.16;68.87;99497.13;1683738;83;21001;-69
2021/12/04 00:37:07;;;;;;;26.50;10.20;;;;;;;0.17;68.88;99490.94;1685082;85;21009;-69
2021/12/04 00:50:19;;;;;;;36.83;11.18;;;;;;;0.17;68.90;99490.94;1685103;83;21006;-69
2021/12/04 00:52:45;;;;;;;35.38;10.93;;;;;;;0.15;68.90;99483.66;1685056;85;21809;-70
2021/12/04 00:55:11;;;;;;;15.63;8.00;;;;;;;0.16;68.87;99484.50;1684984;85;20902;-69
2021/12/04 00:57:38;;;;;;;18.05;8.35;;;;;;;0.17;68.91;99486.17;1685097;85;20980;-69
2021/12/04 01:00:06;;;;;;;16.85;8.38;;;;;;;0.19;68.91;99489.48;1685203;83;21052;-69
2021/12/04 01:02:32;;;;;;;42.20;14.15;;;;;;;0.18;68.90;99489.12;1685006;84;21485;-70
2021/12/04 01:04:58;;;;;;;51.53;15.68;;;;;;;0.19;68.91;99492.94;1685132;85;21127;-69
2021/12/04 01:07:29;;;;;;;38.85;12.55;;;;;;;0.20;68.96;99488.05;1685056;85;21052;-69
2021/12/04 01:09:52;;;;;;;39.60;12.60;;;;;;;0.21;68.94;99488.39;1683442;85;21013;-69
2021/12/04 01:12:19;;;;;;;17.62;8.53;;;;;;;0.23;68.95;99485.66;1685076;85;21576;-69
2021/12/04 01:14:45;;;;;;;18.00;8.20;;;;;;;0.23;68.97;99484.34;1685137;85;21005;-69
2021/12/04 01:17:11;;;;;;;14.13;7.37;;;;;;;0.24;68.98;99480.30;1685116;85;21144;-69
2021/12/04 01:19:37;;;;;;;28.05;11.15;;;;;;;0.25;69.00;99478.00;1684906;85;20909;-69
2021/12/04 01:22:03;;;;;;;76.20;22.77;;;;;;;0.27;69.00;99470.86;1685234;85;21076;-69
2021/12/04 01:24:30;;;;;;;45.08;13.85;;;;;;;0.26;69.02;99469.19;1685374;85;21518;-69
2021/12/04 01:26:56;;;;;;;20.68;9.13;;;;;;;0.28;69.03;99463.32;1685044;85;21509;-69
2021/12/04 01:29:22;;;;;;;24.40;9.28;;;;;;;0.27;69.02;99460.37;1685281;85;21461;-69
2021/12/04 01:31:48;;;;;;;13.72;7.30;;;;;;;0.28;69.04;99467.77;1685080;85;21640;-69
2021/12/04 01:34:14;;;;;;;17.12;7.58;;;;;;;0.27;69.04;99463.00;1685008;85;20988;-71
2021/12/04 01:36:40;;;;;;;15.58;7.72;;;;;;;0.27;69.06;99469.55;1685273;85;21028;-71
2021/12/04 01:39:06;;;;;;;16.80;7.60;;;;;;;0.26;69.09;99471.81;1712007;83;21038;-71
2021/12/04 01:41:33;;;;;;;13.80;7.15;;;;;;;0.24;69.09;99468.50;1712082;83;21152;-71
2021/12/04 01:44:00;;;;;;;31.68;12.25;;;;;;;0.22;69.14;99470.40;1712121;83;21018;-71
2021/12/04 01:46:27;;;;;;;63.23;19.20;;;;;;;0.24;69.13;99471.59;1712007;83;20982;-71
2021/12/04 01:48:53;;;;;;;46.63;14.95;;;;;;;0.25;69.15;99474.07;1712117;83;21026;-71
2021/12/04 01:51:19;;;;;;;23.60;9.30;;;;;;;0.27;69.15;99466.92;1712150;83;21116;-71
2021/12/04 01:53:45;;;;;;;15.80;7.33;;;;;;;0.26;69.17;99471.81;1711934;83;21172;-71
2021/12/04 01:56:11;;;;;;;18.77;8.25;;;;;;;0.31;69.17;99466.19;1712217;83;21727;-72
2021/12/04 01:58:36;;;;;;;16.37;7.22;;;;;;;0.30;69.21;99464.05;1712000;83;20985;-71
2021/12/04 02:01:03;;;;;;;17.95;8.10;;;;;;;0.30;69.23;99461.90;1712195;83;20914;-71
2021/12/04 02:03:29;;;;;;;17.15;8.00;;;;;;;0.30;69.22;99462.73;1712209;83;21063;-71
2021/12/04 02:05:55;;;;;;;14.33;7.45;;;;;;;0.29;69.28;99461.06;1712029;83;21916;-71
2021/12/04 02:08:22;;;;;;;17.45;7.58;;;;;;;0.28;69.27;99451.52;1711974;83;20907;-72
2021/12/04 02:10:51;;;;;;;15.45;7.97;;;;;;;0.28;69.30;99446.28;1712082;83;21006;-71
2021/12/04 02:13:17;;;;;;;16.50;7.63;;;;;;;0.28;69.32;99448.91;1712424;83;21518;-72
2021/12/04 02:15:44;;;;;;;15.90;8.53;;;;;;;0.30;69.33;99449.63;1712001;83;21034;-69
2021/12/04 02:18:12;;;;;;;15.28;7.67;;;;;;;0.31;69.34;99448.67;1712051;83;21131;-69
2021/12/04 02:20:38;;;;;;;14.60;7.55;;;;;;;0.32;69.40;99446.86;1699730;83;21016;-69
2021/12/04 02:23:06;;;;;;;11.48;6.92;;;;;;;0.34;69.43;99441.86;1711982;83;21012;-69
2021/12/04 02:25:32;;;;;;;19.27;9.48;;;;;;;0.33;69.44;99434.95;1712087;83;21054;-69
2021/12/04 02:28:00;;;;;;;21.77;9.93;;;;;;;0.34;69.47;99441.86;1711871;83;21018;-69
2021/12/04 02:30:28;;;;;;;35.63;14.18;;;;;;;0.36;69.51;99430.75;1712109;83;21162;-69
2021/12/04 02:32:54;;;;;;;52.90;17.77;;;;;;;0.38;69.54;99428.84;1711698;83;21054;-69
2021/12/04 02:35:20;;;;;;;23.70;10.80;;;;;;;0.37;69.57;99429.80;1712084;83;21431;-69
2021/12/04 02:37:46;;;;;;;20.85;9.55;;;;;;;0.36;69.58;99421.57;1711969;83;21006;-69
2021/12/04 02:40:15;;;;;;;17.40;8.05;;;;;;;0.37;69.62;99421.93;1712104;83;21612;-69
2021/12/04 02:42:41;;;;;;;16.52;7.35;;;;;;;0.36;69.62;99425.50;1712117;83;21110;-69
2021/12/04 02:45:09;;;;;;;18.20;7.78;;;;;;;0.35;69.67;99425.14;1711950;83;20993;-69
2021/12/04 02:47:35;;;;;;;20.17;9.18;;;;;;;0.35;69.66;99418.59;1713898;83;21022;-69
2021/12/04 02:50:05;;;;;;;19.62;9.20;;;;;;;0.35;69.69;99418.59;1715809;83;21034;-69
2021/12/04 02:52:29;;;;;;;29.63;13.03;;;;;;;0.35;69.72;99415.97;1728298;82;21495;-69
2021/12/04 02:54:55;;;;;;;40.25;14.87;;;;;;;0.36;69.73;99415.02;1728192;83;21073;-69
2021/12/04 02:57:21;;;;;;;33.55;13.20;;;;;;;0.35;69.75;99410.72;1728273;83;20997;-69
2021/12/04 02:59:48;;;;;;;24.77;9.63;;;;;;;0.37;69.80;99408.82;1728331;82;20982;-69
2021/12/04 03:02:20;;;;;;;20.75;8.80;;;;;;;0.38;69.84;99407.87;1728153;83;21018;-69
2021/12/04 03:04:50;;;;;;;13.20;7.42;;;;;;;0.38;69.86;99410.97;1728338;83;21061;-69
2021/12/04 03:07:16;;;;;;;;;;;;;;;0.35;69.87;99415.97;1730284;82;21916;-69
2021/12/04 03:09:42;;;;;;;21.90;8.20;;;;;;;0.34;69.92;99405.63;1754180;80;20795;-69
2021/12/04 03:12:09;;;;;;;13.22;7.60;;;;;;;0.31;69.93;99402.80;1758345;81;20914;-69
2021/12/04 03:14:35;;;;;;;17.07;7.50;;;;;;;0.31;69.99;99400.17;1758442;81;21015;-69
2021/12/04 03:17:01;;;;;;;10.65;6.55;;;;;;;0.28;69.99;99406.95;1758292;81;20998;-69
2021/12/04 03:19:27;;;;;;;18.75;6.90;;;;;;;0.24;70.02;99402.12;1758415;81;22185;-69
2021/12/04 03:21:54;;;;;;;13.43;6.60;;;;;;;0.21;70.08;99404.50;1758273;81;20915;-69
2021/12/04 03:24:20;;;;;;;12.98;7.25;;;;;;;0.16;70.17;99400.61;1758319;81;20971;-69
2021/12/04 03:26:49;;;;;;;13.22;7.45;;;;;;;0.15;70.26;99398.47;1758215;81;21066;-69
2021/12/04 03:29:18;;;;;;;11.83;6.85;;;;;;;0.15;70.34;99397.16;1745431;81;21027;-69
2021/12/04 03:42:17;;;;;;;15.63;6.83;;;;;;;0.08;70.97;99382.91;1758222;81;21531;-69
2021/12/04 03:44:42;;;;;;;13.65;7.45;;;;;;;0.06;71.10;99378.28;1758447;81;21090;-69
2021/12/04 03:47:10;;;;;;;15.50;7.87;;;;;;;0.05;71.24;99377.92;1758106;81;21045;-69
2021/12/04 03:49:37;;;;;;;15.70;8.35;;;;;;;0.04;71.36;99380.19;1758114;81;21007;-69
2021/12/04 03:52:05;;;;;;;18.32;9.05;;;;;;;0.03;71.51;99375.92;1758489;81;21010;-69
2021/12/04 03:54:31;;;;;;;13.20;7.67;;;;;;;0.02;71.65;99376.04;1758324;81;21054;-69
2021/12/04 03:57:03;;;;;;;14.35;8.18;;;;;;;0.00;71.81;99376.98;1758499;81;21716;-69
2021/12/04 03:59:32;;;;;;;15.25;8.25;;;;;;;-0.01;71.94;99375.35;1758207;81;20990;-69
2021/12/04 04:01:58;;;;;;;17.70;8.73;;;;;;;-0.02;72.09;99372.38;1757736;80;21054;-69
2021/12/04 04:04:24;;;;;;;14.33;7.55;;;;;;;-0.03;72.22;99368.08;1758316;81;20887;-69
2021/12/04 04:06:50;;;;;;;13.15;7.28;;;;;;;-0.04;72.38;99366.91;1758424;81;21017;-69
2021/12/04 04:09:16;;;;;;;13.13;8.15;;;;;;;-0.06;72.54;99368.81;1758386;81;21098;-69
2021/12/04 04:11:42;;;;;;;13.25;7.95;;;;;;;-0.08;72.68;99371.58;1758272;81;20958;-69
2021/12/04 04:14:08;;;;;;;13.40;8.13;;;;;;;-0.09;72.85;99361.22;1758541;81;20998;-69
2021/12/04 04:16:36;;;;;;;12.45;7.80;;;;;;;-0.08;73.00;99356.34;1758332;81;21029;-69
2021/12/04 04:19:02;;;;;;;14.35;7.58;;;;;;;-0.07;73.15;99356.70;1745585;81;21082;-69
2021/12/04 04:21:28;;;;;;;12.85;7.95;;;;;;;-0.08;73.27;99355.03;1745360;81;21062;-69
2021/12/04 04:23:54;;;;;;;11.30;7.10;;;;;;;-0.07;73.42;99354.08;1745456;82;20978;-69
2021/12/04 04:26:20;;;;;;;16.27;8.23;;;;;;;-0.08;73.53;99353.72;1745294;82;21393;-69
2021/12/04 04:28:46;;;;;;;15.48;7.58;;;;;;;-0.08;73.70;99349.78;1745485;82;20959;-69
2021/12/04 04:31:13;;;;;;;14.07;7.72;;;;;;;-0.09;73.83;99348.12;1745651;82;20892;-69
2021/12/04 04:33:43;;;;;;;13.78;7.75;;;;;;;-0.11;73.93;99350.05;1758143;81;21091;-69
2021/12/04 05:00:12;;;;;;;80.67;29.40;;;;;;;-0.05;75.04;99333.33;1745727;82;21173;-69
2021/12/04 05:10:03;;;;;;;60.88;25.48;;;;;;;-0.06;75.10;99333.44;1743927;81;21325;-69
2021/12/04 05:10:53;;;;;;;34.50;14.45;;;;;;;-0.10;75.37;99321.55;1725623;83;20995;-69
2021/12/04 05:13:09;;;;;;;22.82;11.25;;;;;;;-0.10;75.46;99322.86;1723628;82;21103;-69
2021/12/04 05:18:32;;;;;;;21.35;10.18;;;;;;;-0.13;75.61;99319.20;1725376;83;20919;-69
2021/12/04 05:20:52;;;;;;;18.50;9.48;;;;;;;-0.13;75.69;99323.13;1723636;82;21069;-69
2021/12/04 05:23:16;;;;;;;19.55;10.18;;;;;;;-0.16;75.79;99322.91;1725150;82;21119;-69
2021/12/04 05:25:42;;;;;;;15.93;9.00;;;;;;;-0.19;75.83;99323.65;1725496;83;21729;-69
2021/12/04 05:28:08;;;;;;;14.98;8.48;;;;;;;-0.19;75.91;99322.34;1725216;83;21402;-69
2021/12/04 05:30:34;;;;;;;17.35;9.78;;;;;;;-0.22;75.99;99319.50;1725499;82;20993;-69
2021/12/04 05:33:01;;;;;;;16.45;8.58;;;;;;;-0.21;76.03;99315.10;1725294;83;20974;-69
2021/12/04 05:35:27;;;;;;;18.17;8.43;;;;;;;-0.22;76.11;99316.05;1725497;83;21042;-69
2021/12/04 05:37:53;;;;;;;15.03;9.08;;;;;;;-0.22;76.19;99315.58;1725386;83;21160;-69
2021/12/04 05:40:19;;;;;;;15.95;9.80;;;;;;;-0.23;76.24;99318.31;1725470;83;21039;-69
2021/12/04 05:42:45;;;;;;;16.40;9.08;;;;;;;-0.23;76.27;99317.84;1725376;83;21086;-69
2021/12/04 05:45:23;;;;;;;16.97;8.35;;;;;;;-0.25;76.37;99313.69;1725521;83;20958;-69
2021/12/04 05:47:59;;;;;;;15.83;9.95;;;;;;;-0.24;76.42;99315.33;1722278;82;21069;-69
2021/12/04 05:55:21;;;;;;;16.25;9.80;;;;;;;-0.27;76.58;99312.97;1713879;83;20921;-69
2021/12/04 05:57:47;;;;;;;15.43;9.38;;;;;;;-0.27;76.61;99309.88;1714044;82;21102;-69
2021/12/04 06:00:20;;;;;;;15.20;8.93;;;;;;;-0.26;76.68;99313.33;1713713;83;21584;-69
2021/12/04 06:02:46;;;;;;;18.75;9.88;;;;;;;-0.25;76.72;99313.69;1714010;83;21131;-69
2021/12/04 06:05:13;;;;;;;18.45;9.83;;;;;;;-0.27;76.79;99311.66;1713759;83;20981;-69
2021/12/04 06:07:39;;;;;;;21.07;11.05;;;;;;;-0.25;76.81;99308.45;1713868;83;21017;-69
2021/12/04 06:10:05;;;;;;;18.10;10.50;;;;;;;-0.24;76.89;99311.40;1713899;83;21057;-69
2021/12/04 06:12:31;;;;;;;21.77;10.95;;;;;;;-0.23;76.94;99309.14;1713852;82;21563;-69
2021/12/04 06:14:57;;;;;;;14.78;8.38;;;;;;;-0.20;76.97;99316.27;1713878;83;21213;-69
2021/12/04 06:17:25;;;;;;;19.77;9.85;;;;;;;-0.16;77.03;99316.84;1713852;83;20993;-69
2021/12/04 06:22:40;;;;;;;43.13;18.15;;;;;;;-0.13;77.10;99320.50;1713837;83;21013;-69
2021/12/04 06:25:08;;;;;;;47.03;15.40;;;;;;;-0.09;77.15;99321.91;1713876;83;21077;-69
2021/12/04 06:27:34;;;;;;;16.52;8.23;;;;;;;-0.07;77.21;99326.05;1713534;83;21987;-69
2021/12/04 06:30:03;;;;;;;13.22;8.08;;;;;;;-0.05;77.24;99318.91;1713728;83;20994;-69
2021/12/04 06:32:29;;;;;;;18.25;8.20;;;;;;;-0.03;77.29;99322.70;1713998;82;21017;-69
2021/12/04 06:34:55;;;;;;;16.93;8.15;;;;;;;-0.04;77.33;99321.89;1713651;82;21038;-69
2021/12/04 06:37:21;;;;;;;14.38;8.15;;;;;;;-0.02;77.37;99325.67;1713930;83;21016;-69
2021/12/04 06:39:47;;;;;;;18.25;8.15;;;;;;;-0.02;77.39;99320.44;1713837;83;21052;-69
2021/12/04 06:42:13;;;;;;;12.95;8.45;;;;;;;-0.02;77.44;99326.52;1713658;83;20956;-69
2021/12/04 06:44:39;;;;;;;16.82;8.90;;;;;;;-0.03;77.48;99316.98;1713988;83;20949;-69
2021/12/04 06:47:05;;;;;;;21.68;10.70;;;;;;;-0.02;77.52;99323.05;1713779;83;21024;-69
2021/12/04 06:49:35;;;;;;;18.00;9.93;;;;;;;-0.01;77.57;99320.80;1707488;83;20902;-69
2021/12/04 06:52:02;;;;;;;20.57;11.43;;;;;;;-0.04;77.62;99321.06;1705761;83;21091;-69
2021/12/04 06:54:32;;;;;;;17.00;11.85;;;;;;;-0.03;77.64;99324.84;1706079;83;21029;-69
2021/12/04 06:56:54;;;;;;;21.93;12.55;;;;;;;-0.02;77.67;99323.05;1705430;83;21481;-69
2021/12/04 06:59:26;;;;;;;18.27;11.22;;;;;;;-0.01;77.71;99326.04;1706220;83;20894;-69
2021/12/04 07:01:48;;;;;;;21.15;14.35;;;;;;;-0.02;77.73;99324.37;1705801;83;21057;-69
2021/12/04 07:04:17;;;;;;;17.15;9.93;;;;;;;-0.05;77.77;99323.32;1706056;84;22117;-69
2021/12/04 07:06:42;;;;;;;17.40;9.78;;;;;;;-0.03;77.82;99326.62;1706078;83;21053;-69
2021/12/04 07:09:09;;;;;;;16.70;9.38;;;;;;;-0.05;77.87;99320.70;1697057;83;21010;-69
2021/12/04 07:11:35;;;;;;;12.07;8.75;;;;;;;-0.03;77.90;99322.70;1694011;84;21010;-69
2021/12/04 07:14:01;;;;;;;14.98;8.95;;;;;;;-0.02;77.96;99326.98;1687009;84;20973;-69
2021/12/04 07:16:27;;;;;;;15.50;9.03;;;;;;;-0.02;78.00;99325.67;1667326;84;21200;-71
2021/12/04 07:18:53;;;;;;;21.35;12.50;;;;;;;-0.01;78.04;99322.11;1663451;85;21026;-69
2021/12/04 07:21:19;;;;;;;19.12;12.15;;;;;;;0.01;78.11;99325.41;1677884;84;21527;-69
2021/12/04 07:23:45;;;;;;;23.42;12.25;;;;;;;0.02;78.14;99324.46;1665434;86;21055;-69
2021/12/04 07:26:11;;;;;;;24.45;14.65;;;;;;;0.04;78.21;99327.77;1648958;87;21676;-70
2021/12/04 07:28:37;;;;;;;24.18;14.35;;;;;;;0.05;78.23;99328.61;1677819;85;21108;-70
2021/12/04 07:31:05;;;;;;;21.10;13.15;;;;;;;0.07;78.28;99326.20;1665291;86;20928;-69
2021/12/04 07:33:31;;;;;;;30.50;15.38;;;;;;;0.09;78.30;99326.08;1648792;87;21020;-70
2021/12/04 07:36:00;;;;;;;36.23;17.80;;;;;;;0.09;78.34;99325.61;1677594;85;21305;-69
2021/12/04 07:38:26;;;;;;;34.47;15.50;;;;;;;0.11;78.38;99327.60;1665585;86;21576;-69
2021/12/04 07:40:52;;;;;;;30.02;18.05;;;;;;;0.11;78.41;99329.39;1653192;85;21166;-70
2021/12/04 07:43:19;;;;;;;24.18;15.23;;;;;;;0.13;78.47;99321.77;1690681;83;20983;-69
2021/12/04 07:45:45;;;;;;;33.48;14.87;;;;;;;0.15;78.51;99322.45;1746566;81;20988;-69
2021/12/04 07:48:11;;;;;;;20.97;14.30;;;;;;;0.18;78.51;99323.50;1721821;82;21029;-69
2021/12/04 07:50:37;;;;;;;44.53;20.88;;;;;;;0.22;78.58;99328.84;1738870;81;21021;-69
2021/12/04 07:53:03;;;;;;;21.48;12.78;;;;;;;0.23;78.59;99322.64;1742797;81;21174;-70
2021/12/04 07:55:29;;;;;;;17.30;9.98;;;;;;;0.25;78.61;99318.08;1747179;81;20938;-69
2021/12/04 07:57:55;;;;;;;16.93;10.10;;;;;;;0.25;78.64;99318.08;1746045;81;21022;-69
2021/12/04 08:00:21;;;;;;;19.95;10.98;;;;;;;0.28;78.67;99320.44;1752128;81;21006;-70
2021/12/04 08:02:48;;;;;;;20.05;12.68;;;;;;;0.29;78.69;99322.11;1755281;81;21446;-69
2021/12/04 08:05:15;;;;;;;30.32;16.90;;;;;;;0.31;78.71;99314.96;1757667;81;21090;-70
2021/12/04 08:07:41;;;;;;;34.55;16.77;;;;;;;0.35;78.76;99315.02;1751421;81;21002;-69
2021/12/04 08:10:12;;;;;;;23.18;14.30;;;;;;;0.38;78.78;99314.78;1758333;80;21046;-70
2021/12/04 08:12:39;;;;;;;20.60;10.82;;;;;;;0.41;78.82;99318.44;1750226;81;21040;-69
2021/12/04 08:15:06;;;;;;;15.83;7.87;;;;;;;0.42;78.83;99315.34;1754801;81;21069;-69
2021/12/04 08:17:32;;;;;;;26.12;11.38;;;;;;;0.41;78.86;99308.44;1758006;81;21844;-69
2021/12/04 08:19:58;;;;;;;21.55;10.80;;;;;;;0.41;78.90;99313.67;1748972;81;20873;-69
2021/12/04 08:22:24;;;;;;;13.60;8.08;;;;;;;0.40;78.94;99316.77;1748226;81;21039;-70
2021/12/04 08:24:50;;;;;;;12.43;7.10;;;;;;;0.39;78.97;99316.42;1753508;81;20907;-70
2021/12/04 08:27:16;;;;;;;13.20;7.55;;;;;;;0.39;79.00;99322.14;1749531;81;20990;-70
2021/12/04 08:29:42;;;;;;;15.90;6.90;;;;;;;0.39;79.02;99329.53;1758111;81;21145;-70
2021/12/04 08:32:08;;;;;;;16.75;8.38;;;;;;;0.38;79.05;99334.45;1755651;81;20930;-69
2021/12/04 08:34:35;;;;;;;14.30;8.38;;;;;;;0.38;79.08;99339.69;1756022;81;20994;-70
2021/12/04 08:37:01;;;;;;;14.10;6.75;;;;;;;0.40;79.12;99336.44;1750326;81;21467;-70
2021/12/04 08:39:27;;;;;;;15.68;6.83;;;;;;;0.40;79.16;99328.58;1754343;81;20911;-69
2021/12/04 08:41:53;;;;;;;20.57;8.20;;;;;;;0.43;79.18;99327.47;1755069;81;21853;-69
2021/12/04 08:44:19;;;;;;;18.85;7.70;;;;;;;0.46;79.21;99329.34;1750768;81;20935;-70
2021/12/04 08:46:46;;;;;;;32.42;14.47;;;;;;;0.50;79.25;99336.00;1755617;81;21054;-70
2021/12/04 08:49:12;;;;;;;25.97;12.18;;;;;;;0.53;79.28;99333.58;1753508;81;21752;-69
2021/12/04 08:51:38;;;;;;;20.40;12.18;;;;;;;0.55;79.29;99332.16;1752413;81;20904;-69
2021/12/04 08:54:04;;;;;;;23.83;13.13;;;;;;;0.55;79.31;99333.46;1754632;81;21127;-69
2021/12/04 08:56:30;;;;;;;24.12;13.70;;;;;;;0.55;79.34;99334.30;1756038;81;20986;-69
2021/12/04 08:58:56;;;;;;;48.20;32.10;;;;;;;0.58;79.37;99338.44;1755419;81;21546;-69
2021/12/04 09:01:25;;;;;;;37.23;27.10;;;;;;;0.59;79.37;99334.86;1753454;81;21600;-69
2021/12/04 09:04:05;;;;;;;33.50;23.15;;;;;;;0.59;79.40;99337.00;1757308;81;21027;-70
2021/12/04 09:06:33;;;;;;;29.52;19.70;;;;;;;0.57;79.40;99339.39;1757958;81;21070;-69
2021/12/04 09:08:59;;;;;;;21.37;12.10;;;;;;;0.56;79.43;99343.00;1756896;81;21014;-70
2021/12/04 09:11:31;;;;;;;15.50;7.72;;;;;;;0.56;79.47;99339.06;1757220;80;21034;-69
2021/12/04 09:13:57;;;;;;;18.75;8.73;;;;;;;0.56;79.47;99336.44;1748659;80;21056;-70
2021/12/04 09:16:23;;;;;;;18.02;10.40;;;;;;;0.58;79.51;99339.75;1756722;80;21647;-69
2021/12/04 09:18:50;;;;;;;34.00;15.00;;;;;;;0.61;79.50;99338.16;1757110;81;21109;-69
2021/12/04 09:21:16;;;;;;;29.02;15.30;;;;;;;0.61;79.53;99337.69;1749120;81;21040;-69
2021/12/04 09:23:48;;;;;;;28.38;16.37;;;;;;;0.64;79.57;99339.20;1746417;81;21106;-69
2021/12/04 09:26:26;;;;;;;52.05;21.68;;;;;;;0.64;79.56;99341.36;1743718;81;21050;-69
2021/12/04 09:28:44;;;;;;;62.73;24.18;;;;;;;0.68;79.62;99341.92;1733765;81;21016;-69
2021/12/04 09:34:04;;;;;;;56.88;25.43;;;;;;;0.69;79.65;99343.11;1719862;83;21097;-70
2021/12/04 09:36:43;;;;;;;49.05;22.42;;;;;;;0.70;79.69;99336.08;1699750;83;21645;-70
2021/12/04 10:01:02;;;;;;;37.45;16.02;;;;;;;0.84;79.89;99314.70;1720117;83;21076;-69
2021/12/04 10:03:43;;;;;;;21.75;11.18;;;;;;;0.86;79.87;99314.08;1723356;82;21042;-70
2021/12/04 10:06:27;;;;;;;33.40;14.73;;;;;;;0.82;79.89;99306.13;1723017;82;21006;-70
2021/12/04 10:11:56;;;;;;;60.75;33.53;;;;;;;0.90;79.95;99303.66;1722739;83;21691;-70
2021/12/04 10:14:50;;;;;;;41.70;22.52;;;;;;;0.96;79.94;99301.31;1710351;82;21510;-70
2021/12/04 10:19:36;;;;;;;37.20;20.30;;;;;;;0.96;80.00;99301.80;1725197;83;21040;-70
2021/12/04 10:33:18;;;;;;;32.20;18.07;;;;;;;1.07;80.05;99297.73;1719758;83;21019;-70
2021/12/04 10:35:45;;;;;;;29.35;16.23;;;;;;;1.10;80.06;99300.08;1721043;83;21026;-70
2021/12/04 10:38:23;;;;;;;48.52;25.48;;;;;;;1.13;80.09;99291.93;1720678;83;21874;-70
2021/12/04 10:40:50;;;;;;;41.98;21.45;;;;;;;1.06;80.13;99288.20;1720589;83;21622;-70
2021/12/04 10:43:21;;;;;;;39.18;19.02;;;;;;;1.03;80.14;99285.02;1718944;83;21006;-70
2021/12/04 10:45:54;;;;;;;32.00;15.95;;;;;;;0.94;80.12;99291.93;1701310;84;21050;-70
2021/12/04 10:48:24;;;;;;;33.60;16.77;;;;;;;0.91;80.14;99296.14;1701108;84;21925;-70
2021/12/04 10:51:02;;;;;;;42.05;22.65;;;;;;;0.94;80.15;99289.30;1684089;83;21144;-70
2021/12/04 10:53:29;;;;;;;40.10;25.37;;;;;;;1.03;80.14;99286.33;1699509;83;21475;-70
2021/12/04 10:56:08;;;;;;;27.10;15.68;;;;;;;1.09;80.11;99290.54;1698199;83;21479;-70
2021/12/04 11:01:42;;;;;;;30.82;16.48;;;;;;;1.09;80.16;99280.05;1725104;81;21491;-70
2021/12/04 11:06:43;;;;;;;24.45;14.63;;;;;;;1.14;80.21;99280.47;1731187;81;21510;-71
2021/12/04 11:21:13;;;;;;;20.70;11.85;;;;;;;1.04;80.22;99262.58;1674547;85;21026;-71
2021/12/04 11:36:55;;;;;;;48.78;21.48;;;;;;;1.15;80.31;99252.42;1732675;82;21554;-71
2021/12/04 11:39:23;;;;;;;43.45;22.42;;;;;;;1.12;80.30;99250.91;1733518;81;21101;-71
2021/12/04 11:41:42;;;;;;;53.40;26.42;;;;;;;1.11;80.32;99250.56;1719833;81;21022;-71
2021/12/04 11:44:13;;;;;;;41.68;21.37;;;;;;;1.20;80.36;99254.97;1733300;82;21144;-71
2021/12/04 11:46:44;;;;;;;41.55;18.52;;;;;;;1.23;80.38;99242.88;1727363;81;21517;-71
2021/12/04 11:49:11;;;;;;;30.40;14.53;;;;;;;1.20;80.36;99240.53;1732701;81;21010;-71
2021/12/04 11:52:01;;;;;;;65.15;34.48;;;;;;;1.23;80.39;99246.81;1756682;81;20974;-71
2021/12/04 11:54:34;;;;;;;79.47;35.58;;;;;;;1.18;80.39;99241.16;1727555;81;21151;-71
2021/12/04 11:57:07;;;;;;;80.22;39.08;;;;;;;1.17;80.40;99242.12;1741249;81;21288;-71
2021/12/04 11:59:36;;;;;;;40.43;22.90;;;;;;;1.21;80.43;99244.82;1758099;81;21226;-71
2021/12/04 12:02:03;;;;;;;53.78;32.00;;;;;;;1.22;80.43;99241.72;1758298;81;21544;-71
2021/12/04 12:04:41;;;;;;;94.60;42.27;;;;;;;1.19;80.42;99232.81;1758467;81;20969;-71
2021/12/04 12:07:25;;;;;;;34.05;18.80;;;;;;;1.20;80.45;99227.40;1758334;81;21001;-72
2021/12/04 12:10:09;;;;;;;30.10;17.60;;;;;;;1.14;80.44;99220.57;1757856;81;21169;-71
2021/12/04 12:12:38;;;;;;;40.83;24.05;;;;;;;1.11;80.47;99220.38;1770150;80;21484;-71
2021/12/04 12:15:23;;;;;;;443.50;277.73;;;;;;;1.17;80.50;99214.55;1773920;80;21030;-71
2021/12/04 12:17:49;;;;;;;73.62;38.17;;;;;;;1.24;80.51;99213.03;1774187;80;20963;-71
2021/12/04 12:20:21;;;;;;;357.15;166.70;;;;;;;1.23;80.48;99213.98;1773707;80;20988;-71
2021/12/04 12:22:51;;;;;;;87.67;42.93;;;;;;;1.19;80.45;99212.64;1725526;81;21138;-71
2021/12/04 12:25:26;;;;;;;245.15;161.07;;;;;;;1.18;80.47;99218.84;1724742;82;21038;-71
2021/12/04 12:36:14;;;;;;;41.63;19.70;;;;;;;1.32;80.51;99205.28;1697170;83;22052;-71
2021/12/04 12:38:46;;;;;;;65.85;27.82;;;;;;;1.30;80.51;99199.33;1705148;83;21464;-71
2021/12/04 12:41:42;;;;;;;86.25;33.30;;;;;;;1.25;80.51;99196.31;1700419;83;21562;-71
2021/12/04 12:44:21;;;;;;;50.10;23.90;;;;;;;1.23;80.52;99201.37;1696444;84;21018;-71
2021/12/04 12:47:02;;;;;;;49.47;24.87;;;;;;;1.15;80.51;99195.98;1716182;83;21014;-71
2021/12/04 12:49:38;;;;;;;69.92;30.05;;;;;;;1.04;80.49;99181.69;1715853;83;22197;-70
2021/12/04 12:52:25;;;;;;;163.92;53.70;;;;;;;0.99;80.46;99183.41;1722692;82;21010;-71
2021/12/04 12:55:05;;;;;;;165.43;84.28;;;;;;;0.94;80.47;99183.02;1729591;82;21020;-72
2021/12/04 12:57:37;;;;;;;143.57;77.70;;;;;;;0.86;80.48;99177.14;1745611;82;21054;-71
2021/12/04 13:14:22;;;;;;;315.62;92.90;;;;;;;0.90;80.58;99159.33;1733825;81;21121;-71
2021/12/04 13:17:12;;;;;;;95.40;32.45;;;;;;;0.92;80.61;99162.63;1746180;81;21257;-71
2021/12/04 13:19:42;;;;;;;70.47;29.48;;;;;;;0.90;80.65;99160.16;1727749;83;21090;-71
2021/12/04 13:22:17;;;;;;;68.33;27.45;;;;;;;0.88;80.63;99146.84;1734621;82;21565;-70
2021/12/04 13:24:43;;;;;;;93.17;37.70;;;;;;;0.88;80.64;99150.77;1715863;83;20974;-71
2021/12/04 13:29:46;;;;;;;108.32;36.83;;;;;;;0.93;80.67;99145.92;1746872;81;21089;-71
2021/12/04 13:32:14;;;;;;;160.28;64.32;;;;;;;0.93;80.66;99138.05;1737155;81;21503;-71
2021/12/04 13:34:41;;;;;;;211.37;144.75;;;;;;;0.91;80.68;99140.83;1728798;81;21578;-71
2021/12/04 13:37:07;;;;;;;231.35;101.22;;;;;;;0.92;80.70;99140.31;1756208;81;20971;-71
2021/12/04 13:39:34;;;;;;;214.88;96.20;;;;;;;0.91;80.69;99145.24;1758214;81;21054;-71
2021/12/04 13:42:01;;;;;;;68.42;31.05;;;;;;;0.87;80.67;99141.23;1755245;81;21128;-71
2021/12/04 13:44:28;;;;;;;255.98;146.28;;;;;;;0.87;80.70;99147.80;1730683;81;21459;-71
2021/12/04 13:47:00;;;;;;;587.27;213.72;;;;;;;0.86;80.70;99143.03;1728292;83;21057;-71
2021/12/04 13:49:40;;;;;;;243.73;92.57;;;;;;;0.89;80.71;99144.53;1741909;81;21557;-71
2021/12/04 13:52:12;;;;;;;36.27;19.60;;;;;;;0.91;80.74;99149.18;1714587;82;21542;-71
2021/12/04 13:54:43;;;;;;;20.15;10.98;;;;;;;0.91;80.75;99150.49;1737634;81;21675;-71
2021/12/04 13:57:10;;;;;;;25.92;15.70;;;;;;;0.90;80.75;99147.03;1743418;81;21510;-71
2021/12/04 13:59:36;;;;;;;86.17;51.08;;;;;;;0.90;80.74;99146.20;1743395;82;21518;-71
2021/12/04 14:02:02;;;;;;;118.37;61.15;;;;;;;0.90;80.75;99146.20;1743924;81;21050;-70
2021/12/04 14:04:28;;;;;;;105.80;50.52;;;;;;;0.88;80.76;99145.53;1714392;83;21065;-71
2021/12/04 14:07:00;;;;;;;56.02;26.62;;;;;;;0.90;80.76;99144.89;1722931;82;21876;-70
2021/12/04 14:09:38;;;;;;;38.33;18.82;;;;;;;0.92;80.76;99144.25;1743507;81;21025;-70